Time;durP1;ratioP1;P1;durP2;ratioP2;P2;SDS_P1;SDS_P2;PMS_P1;PMS_P2;Temp;Humidity;BMP_temperature;BMP_pressure;BME280_temperature;BME280_humidity;BME280_pressure;Samples;Min_cycle;Max_cycle;Signal;HPM_P1;HPM_P2
2023/05/18 00:00:18;;;;;;;9.50;6.80;;;;;;;16.43;56.90;100740.91;108086;1252;63443;-84
2023/05/18 00:02:47;;;;;;;9.30;7.00;;;;;;;16.41;57.10;100740.17;108163;1253;60459;-85
2023/05/18 00:05:16;;;;;;;8.70;6.90;;;;;;;16.40;57.44;100742.83;108237;1253;72879;-84
2023/05/18 00:07:44;;;;;;;10.40;6.90;;;;;;;16.41;57.62;100746.60;108270;1254;74886;-84
2023/05/18 00:10:11;;;;;;;11.10;7.30;;;;;;;16.41;57.71;100746.55;108108;1253;73822;-85
2023/05/18 00:12:38;;;;;;;10.10;6.90;;;;;;;16.41;57.80;100744.93;108350;1253;64247;-84
2023/05/18 00:15:06;;;;;;;10.90;6.50;;;;;;;16.37;57.71;100742.67;108193;1253;62613;-84
2023/05/18 00:17:33;;;;;;;10.00;6.80;;;;;;;16.32;57.48;100743.16;108323;1257;74654;-85
2023/05/18 00:20:00;;;;;;;9.90;6.70;;;;;;;16.28;57.36;100740.85;108187;1253;72779;-84
2023/05/18 00:22:28;;;;;;;8.80;6.70;;;;;;;16.28;57.08;100745.92;108078;1253;72552;-84
2023/05/18 00:24:55;;;;;;;9.20;6.20;;;;;;;16.28;56.91;100752.34;108067;1254;63644;-84
2023/05/18 00:27:23;;;;;;;8.90;6.50;;;;;;;16.25;57.01;100753.99;108170;1253;61465;-85
2023/05/18 00:29:53;;;;;;;9.30;6.90;;;;;;;16.20;57.12;100755.88;108307;1253;73402;-85
2023/05/18 00:32:20;;;;;;;8.80;6.60;;;;;;;16.17;57.08;100753.77;108372;1253;73137;-86
2023/05/18 00:34:47;;;;;;;9.30;6.80;;;;;;;16.14;56.89;100744.70;108065;1254;72707;-86
2023/05/18 00:37:15;;;;;;;10.90;7.50;;;;;;;16.13;56.90;100743.59;108151;1253;63689;-86
2023/05/18 00:39:43;;;;;;;10.80;7.40;;;;;;;16.14;57.59;100743.25;108301;1253;60897;-85
2023/05/18 00:42:10;;;;;;;11.10;7.90;;;;;;;16.15;58.23;100745.48;108230;1254;74832;-85
2023/05/18 00:44:38;;;;;;;10.80;7.70;;;;;;;16.17;58.69;100745.63;108007;1254;74202;-85
2023/05/18 00:47:05;;;;;;;11.00;8.00;;;;;;;16.18;59.26;100742.77;108199;1255;73978;-84
2023/05/18 00:49:32;;;;;;;9.70;8.10;;;;;;;16.18;59.83;100743.73;108049;1254;63791;-84
2023/05/18 00:52:00;;;;;;;8.70;7.50;;;;;;;16.18;60.19;100736.13;108227;1253;60332;-84
2023/05/18 00:54:27;;;;;;;9.50;7.10;;;;;;;16.19;60.47;100738.39;107930;1256;71967;-86
2023/05/18 00:56:55;;;;;;;9.80;7.30;;;;;;;16.14;60.70;100739.63;108135;1256;74787;-85
2023/05/18 00:59:22;;;;;;;8.70;7.10;;;;;;;16.06;60.97;100739.20;107856;1254;72378;-85
2023/05/18 01:01:51;;;;;;;10.60;7.10;;;;;;;16.01;61.11;100743.09;108240;1256;62742;-85
2023/05/18 01:04:20;;;;;;;11.80;7.40;;;;;;;16.00;61.16;100741.54;108141;1253;62284;-85
2023/05/18 01:06:51;;;;;;;8.60;7.30;;;;;;;16.02;61.23;100741.23;108170;1253;76330;-85
2023/05/18 01:09:21;;;;;;;10.30;7.20;;;;;;;15.96;61.23;100749.02;107991;1253;74023;-85
2023/05/18 01:11:53;;;;;;;10.50;7.40;;;;;;;15.88;61.21;100746.11;108078;1252;72575;-85
2023/05/18 01:14:20;;;;;;;;;;;;;;;15.85;61.34;100748.88;108224;1252;61549;-85
2023/05/18 01:16:53;;;;;;;10.30;7.40;;;;;;;15.94;61.23;100745.60;108158;1254;62468;-86
2023/05/18 01:19:34;;;;;;;9.50;7.40;;;;;;;15.96;61.25;100748.84;108305;1254;76515;-84
2023/05/18 01:22:12;;;;;;;10.90;7.30;;;;;;;15.92;61.54;100753.05;108478;1254;74574;-84
2023/05/18 01:24:47;;;;;;;9.80;6.80;;;;;;;15.94;61.68;100754.61;108051;1253;73335;-84
2023/05/18 01:27:15;;;;;;;9.80;7.10;;;;;;;15.95;61.83;100758.20;107972;1259;61107;-85
2023/05/18 01:29:46;;;;;;;10.10;7.80;;;;;;;15.94;61.84;100760.47;107966;1254;59974;-85
2023/05/18 01:32:18;;;;;;;10.20;7.40;;;;;;;15.93;61.87;100758.80;107911;1254;75553;-86
2023/05/18 01:34:46;;;;;;;10.10;7.30;;;;;;;15.93;61.88;100761.02;108151;1253;71115;-85
2023/05/18 01:37:13;;;;;;;9.50;7.40;;;;;;;15.92;61.90;100763.34;108191;1254;74771;-85
2023/05/18 01:39:42;;;;;;;9.40;7.10;;;;;;;15.90;61.90;100767.45;108211;1256;61011;-86
2023/05/18 01:42:13;;;;;;;8.20;7.30;;;;;;;15.90;61.89;100766.61;108154;1253;62430;-85
2023/05/18 01:44:50;;;;;;;10.40;7.90;;;;;;;15.87;61.90;100767.98;107806;1254;74342;-85
2023/05/18 01:47:18;;;;;;;8.20;7.00;;;;;;;15.87;61.90;100768.95;108131;1254;74822;-85
2023/05/18 01:49:55;;;;;;;9.30;7.50;;;;;;;15.86;61.84;100768.80;108345;1253;71281;-84
2023/05/18 01:52:37;;;;;;;9.40;7.40;;;;;;;15.83;61.90;100768.95;108143;1254;61018;-84
2023/05/18 01:55:05;;;;;;;9.30;6.80;;;;;;;15.82;61.94;100771.27;107975;1254;60186;-84
2023/05/18 01:57:34;;;;;;;7.80;6.90;;;;;;;15.81;61.92;100773.66;108058;1253;74701;-85
2023/05/18 02:00:04;;;;;;;8.00;7.10;;;;;;;15.80;61.88;100775.02;108207;1254;72011;-84
2023/05/18 02:02:41;;;;;;;9.10;6.80;;;;;;;15.77;61.79;100776.51;108071;1254;73725;-85
2023/05/18 02:05:12;;;;;;;9.30;7.40;;;;;;;15.73;61.71;100774.39;108107;1254;60456;-85
2023/05/18 02:07:39;;;;;;;9.30;7.90;;;;;;;15.70;61.74;100778.04;108225;1252;61651;-85
2023/05/18 02:10:08;;;;;;;9.10;7.70;;;;;;;15.67;61.87;100779.98;108179;1253;72223;-87
2023/05/18 02:12:35;;;;;;;12.90;7.80;;;;;;;15.66;62.02;100780.75;108248;1253;74506;-86
2023/05/18 02:15:04;;;;;;;9.50;7.50;;;;;;;15.64;62.03;100785.98;107902;1254;72522;-84
2023/05/18 02:17:35;;;;;;;9.40;7.90;;;;;;;15.60;62.01;100783.73;108123;1254;64517;-86
2023/05/18 02:20:06;;;;;;;8.80;7.70;;;;;;;15.56;61.90;100784.00;108200;1253;61546;-85
2023/05/18 02:22:34;;;;;;;10.30;7.60;;;;;;;15.53;61.90;100781.41;108219;1252;75234;-85
2023/05/18 02:25:06;;;;;;;8.30;7.40;;;;;;;15.50;61.88;100785.69;108026;1253;74858;-85
2023/05/18 02:27:36;;;;;;;9.50;6.90;;;;;;;15.48;61.95;100788.88;107845;1254;74578;-85
2023/05/18 02:30:07;;;;;;;7.90;7.10;;;;;;;15.46;61.96;100789.42;107942;1254;62574;-85
2023/05/18 02:32:41;;;;;;;11.40;7.50;;;;;;;15.43;61.87;100799.64;108130;1254;63126;-85
2023/05/18 02:35:14;;;;;;;8.50;7.00;;;;;;;15.40;61.90;100803.59;107751;1254;74739;-85
2023/05/18 02:37:43;;;;;;;9.70;7.50;;;;;;;15.38;62.00;100803.40;108213;1253;73250;-86
2023/05/18 02:40:11;;;;;;;11.50;7.70;;;;;;;15.32;61.85;100808.19;108132;1254;72997;-86
2023/05/18 02:42:39;;;;;;;8.60;7.60;;;;;;;15.21;61.88;100809.94;108381;1253;61757;-85
2023/05/18 02:45:07;;;;;;;8.50;7.30;;;;;;;15.17;61.85;100809.23;108068;1254;162628;-85
2023/05/18 02:47:34;;;;;;;11.10;7.80;;;;;;;15.15;61.91;100807.83;108115;1254;74471;-85
2023/05/18 02:50:02;;;;;;;8.80;7.50;;;;;;;15.12;61.91;100811.14;107761;1253;72781;-85
2023/05/18 02:52:29;;;;;;;9.00;7.60;;;;;;;15.09;62.03;100803.89;108063;1254;71158;-85
2023/05/18 02:54:58;;;;;;;8.30;7.40;;;;;;;15.10;62.12;100808.04;108080;1252;61877;-84
2023/05/18 02:57:56;;;;;;;11.10;8.00;;;;;;;15.17;62.30;100806.92;107919;1254;61216;-85
2023/05/18 03:00:38;;;;;;;9.70;7.30;;;;;;;15.20;62.29;100806.45;108109;1259;72555;-85
2023/05/18 03:03:09;;;;;;;8.80;7.90;;;;;;;15.28;62.47;100809.94;108203;1254;73906;-84
2023/05/18 03:05:37;;;;;;;9.00;7.50;;;;;;;15.36;62.43;100803.14;107988;1254;71385;-85
2023/05/18 03:08:05;;;;;;;10.40;7.90;;;;;;;15.48;62.39;100808.37;108104;1256;62338;-87
2023/05/18 03:10:33;;;;;;;9.10;6.80;;;;;;;15.54;62.47;100809.61;108012;1254;60015;-85
2023/05/18 03:13:02;;;;;;;9.70;7.40;;;;;;;15.62;62.54;100807.21;108117;1254;73699;-85
2023/05/18 03:15:30;;;;;;;9.60;8.20;;;;;;;15.71;62.70;100808.08;108286;1254;72288;-85
2023/05/18 03:18:01;;;;;;;10.40;7.80;;;;;;;15.80;62.72;100810.03;108124;1253;73266;-84
2023/05/18 03:20:30;;;;;;;11.30;8.00;;;;;;;15.88;62.61;100811.98;108168;1254;60367;-85
2023/05/18 03:22:57;;;;;;;10.40;7.70;;;;;;;15.99;62.69;100812.73;108117;1254;60242;-84
2023/05/18 03:25:25;;;;;;;9.70;7.80;;;;;;;16.08;62.56;100811.44;107952;1254;73801;-85
2023/05/18 03:27:55;;;;;;;8.70;7.60;;;;;;;16.19;62.39;100817.77;108268;1254;74607;-84
2023/05/18 03:30:24;;;;;;;8.70;7.80;;;;;;;16.30;62.31;100825.24;108251;1252;73782;-84
2023/05/18 03:32:51;;;;;;;9.30;7.50;;;;;;;16.41;62.25;100824.95;108035;1253;62793;-85
2023/05/18 03:35:22;;;;;;;9.00;7.40;;;;;;;16.52;62.18;100822.75;108102;1253;60315;-85
2023/05/18 03:37:49;;;;;;;10.10;7.70;;;;;;;16.63;62.18;100825.03;108187;1253;74753;-84
2023/05/18 03:40:17;;;;;;;9.00;7.20;;;;;;;16.74;62.00;100825.86;108098;1254;73191;-84
2023/05/18 03:42:45;;;;;;;9.00;7.50;;;;;;;16.82;61.75;100826.80;108192;1254;73273;-86
2023/05/18 03:45:12;;;;;;;10.60;7.40;;;;;;;16.87;61.32;100827.21;108138;1254;61614;-83
2023/05/18 03:47:40;;;;;;;10.30;8.10;;;;;;;16.89;60.82;100827.33;108222;1254;62283;-85
2023/05/18 03:50:08;;;;;;;9.50;7.70;;;;;;;16.94;60.58;100830.72;108076;1259;75968;-85
2023/05/18 03:52:35;;;;;;;11.60;7.90;;;;;;;17.00;60.24;100828.85;108102;1253;75086;-86
2023/05/18 03:55:05;;;;;;;10.80;8.10;;;;;;;17.09;60.01;100833.41;108191;1254;71808;-85
2023/05/18 03:57:32;;;;;;;10.60;7.80;;;;;;;17.20;59.71;100835.83;108086;1255;60309;-85
2023/05/18 04:00:00;;;;;;;9.50;8.10;;;;;;;17.32;59.48;100829.31;108196;1254;59577;-85
2023/05/18 04:02:29;;;;;;;8.70;7.40;;;;;;;17.45;59.19;100832.07;108214;1254;74914;-84
2023/05/18 04:04:57;;;;;;;10.00;7.60;;;;;;;17.59;58.70;100831.81;108143;1254;74546;-84
2023/05/18 04:07:29;;;;;;;9.40;7.40;;;;;;;17.73;58.20;100839.31;108247;1253;72584;-84
2023/05/18 04:09:57;;;;;;;11.10;7.00;;;;;;;17.87;57.84;100839.29;107951;1254;61431;-84
2023/05/18 04:12:25;;;;;;;9.60;6.40;;;;;;;18.00;57.32;100836.60;108257;1259;62582;-85
2023/05/18 04:14:53;;;;;;;7.40;5.90;;;;;;;18.12;56.57;100839.41;108136;1253;74766;-84
2023/05/18 04:17:21;;;;;;;10.30;6.20;;;;;;;18.25;55.72;100839.44;108289;1254;73380;-85
2023/05/18 04:19:48;;;;;;;10.30;6.50;;;;;;;18.34;54.89;100844.01;108249;1254;72669;-85
2023/05/18 04:22:16;;;;;;;9.50;5.90;;;;;;;18.44;54.24;100846.98;108183;1252;60334;-84
2023/05/18 04:24:46;;;;;;;9.30;6.00;;;;;;;18.56;53.26;100845.83;108094;1252;60428;-84
2023/05/18 04:27:14;;;;;;;7.90;5.90;;;;;;;18.64;52.83;100853.33;108224;1253;74556;-84
2023/05/18 04:29:42;;;;;;;8.00;6.30;;;;;;;18.73;52.64;100849.58;108155;1253;75181;-84
2023/05/18 04:32:10;;;;;;;8.70;6.10;;;;;;;18.90;52.58;100857.38;108266;1254;74923;-84
2023/05/18 04:34:38;;;;;;;5.80;4.90;;;;;;;19.13;52.17;100861.61;108046;1257;64127;-84
2023/05/18 04:37:05;;;;;;;8.10;6.10;;;;;;;19.23;51.77;100860.25;108149;1253;61470;-85
2023/05/18 04:39:33;;;;;;;11.10;6.00;;;;;;;19.32;51.29;100857.64;108026;1253;73548;-85
2023/05/18 04:42:09;;;;;;;9.70;6.00;;;;;;;19.37;51.21;100858.38;108275;1254;74910;-83
2023/05/18 04:44:37;;;;;;;7.80;5.70;;;;;;;19.48;50.97;100860.98;108175;1254;74810;-84
2023/05/18 04:47:07;;;;;;;8.10;5.60;;;;;;;19.60;50.85;100857.23;107993;1254;62564;-84
2023/05/18 04:49:38;;;;;;;9.60;6.00;;;;;;;19.73;50.23;100858.01;108047;1254;61600;-84
2023/05/18 04:52:09;;;;;;;7.40;5.30;;;;;;;19.85;50.00;100858.39;108156;1254;73073;-84
2023/05/18 04:54:36;;;;;;;6.20;4.90;;;;;;;19.99;49.70;100858.19;108232;1254;74322;-85
2023/05/18 04:57:04;;;;;;;6.40;4.90;;;;;;;20.15;49.23;100859.70;108141;1253;75335;-85
2023/05/18 04:59:35;;;;;;;8.40;5.20;;;;;;;20.26;48.89;100858.96;108209;1253;60828;-84
2023/05/18 05:02:04;;;;;;;7.80;5.10;;;;;;;20.44;48.52;100857.62;108060;1254;61201;-84
2023/05/18 05:04:31;;;;;;;6.70;4.70;;;;;;;20.53;48.34;100865.35;107887;1254;75437;-84
2023/05/18 05:06:59;;;;;;;8.40;5.30;;;;;;;20.63;48.25;100865.88;107701;1254;71438;-85
2023/05/18 05:09:27;;;;;;;11.60;5.20;;;;;;;20.71;48.11;100869.89;108104;1254;73574;-85
2023/05/18 05:11:55;;;;;;;9.10;5.60;;;;;;;20.82;48.11;100868.55;108129;1254;60453;-84
2023/05/18 05:14:26;;;;;;;8.10;4.80;;;;;;;21.03;47.80;100867.98;108178;1254;61386;-84
2023/05/18 05:16:54;;;;;;;10.90;4.80;;;;;;;21.23;46.93;100861.36;108153;1253;74492;-84
2023/05/18 05:19:21;;;;;;;7.90;4.80;;;;;;;21.33;46.27;100866.29;108161;1254;72462;-84
2023/05/18 05:21:49;;;;;;;8.10;5.00;;;;;;;21.44;46.15;100866.63;108092;1254;74562;-84
2023/05/18 05:24:18;;;;;;;6.60;5.20;;;;;;;21.51;45.95;100863.98;108132;1254;62315;-86
2023/05/18 05:26:45;;;;;;;8.30;5.00;;;;;;;21.56;45.40;100866.14;108186;1254;62315;-87
2023/05/18 05:29:12;;;;;;;5.70;4.70;;;;;;;21.62;44.99;100869.89;108099;1254;73401;-84
2023/05/18 05:31:40;;;;;;;8.00;4.80;;;;;;;21.70;44.88;100868.42;108099;1254;73905;-83
2023/05/18 05:34:07;;;;;;;6.70;4.50;;;;;;;21.81;44.59;100867.83;108150;1254;73752;-84
2023/05/18 05:36:34;;;;;;;7.90;4.40;;;;;;;21.94;44.65;100863.93;108129;1254;62126;-84
2023/05/18 05:39:02;;;;;;;5.80;4.50;;;;;;;22.09;44.51;100865.83;108369;1254;60233;-84
2023/05/18 05:41:30;;;;;;;5.20;4.40;;;;;;;22.22;44.35;100865.86;108312;1254;73530;-85
2023/05/18 05:43:58;;;;;;;6.30;4.30;;;;;;;22.35;43.28;100864.67;108749;1253;73391;-83
2023/05/18 05:46:26;;;;;;;6.40;4.40;;;;;;;22.50;43.22;100867.55;108759;1253;71817;-82
2023/05/18 05:48:56;;;;;;;5.90;4.00;;;;;;;22.67;43.13;100868.85;108462;1253;60989;-82
2023/05/18 05:51:24;;;;;;;9.90;4.40;;;;;;;22.91;42.35;100873.47;108600;1254;59479;-82
2023/05/18 05:53:52;;;;;;;6.70;4.10;;;;;;;23.17;41.41;100872.98;108441;1254;75049;-82
2023/05/18 05:56:20;;;;;;;6.80;3.80;;;;;;;23.34;41.11;100870.70;108212;1253;75146;-83
2023/05/18 05:58:48;;;;;;;10.00;3.60;;;;;;;23.50;40.52;100875.63;108289;1253;72844;-84
2023/05/18 06:01:15;;;;;;;5.90;3.10;;;;;;;23.66;39.91;100873.61;108239;1254;61571;-85
2023/05/18 06:03:44;;;;;;;6.10;3.20;;;;;;;23.81;38.86;100873.91;108099;1254;60358;-85
2023/05/18 06:06:12;;;;;;;4.30;3.10;;;;;;;23.95;38.09;100875.14;108252;1252;73384;-83
2023/05/18 06:08:39;;;;;;;6.20;2.90;;;;;;;24.09;37.73;100874.43;108178;1253;74328;-84
2023/05/18 06:11:07;;;;;;;4.60;3.00;;;;;;;24.23;37.45;100875.20;108165;1254;72352;-85
2023/05/18 06:13:38;;;;;;;7.80;3.20;;;;;;;24.37;37.12;100877.20;108028;1254;60444;-82
2023/05/18 06:16:05;;;;;;;7.40;3.50;;;;;;;24.42;37.26;100878.27;108209;1254;61310;-84
2023/05/18 06:18:34;;;;;;;5.90;2.80;;;;;;;24.62;36.96;100880.41;108202;1254;74430;-84
2023/05/18 06:21:03;;;;;;;5.40;3.20;;;;;;;24.78;36.62;100878.54;108075;1253;74091;-84
2023/05/18 06:23:31;;;;;;;4.90;2.60;;;;;;;24.89;36.31;100875.50;108051;1254;73854;-83
2023/05/18 06:26:09;;;;;;;5.70;2.40;;;;;;;24.98;36.29;100880.39;108151;1253;61568;-85
2023/05/18 06:28:56;;;;;;;5.60;3.00;;;;;;;25.03;35.59;100879.81;108143;1254;61554;-84
2023/05/18 06:31:43;;;;;;;5.70;3.00;;;;;;;25.16;35.37;100881.14;107815;1254;75452;-83
2023/05/18 06:34:17;;;;;;;5.60;2.70;;;;;;;25.41;34.79;100883.09;108141;1254;73465;-84
2023/05/18 06:36:45;;;;;;;5.40;2.70;;;;;;;25.57;33.91;100878.01;108126;1257;73214;-84
2023/05/18 06:39:15;;;;;;;5.00;2.80;;;;;;;25.66;33.69;100878.02;108007;1254;60286;-84
2023/05/18 06:41:44;;;;;;;5.50;2.60;;;;;;;25.72;33.71;100874.76;108084;1254;63058;-84
2023/05/18 06:44:18;;;;;;;4.70;2.50;;;;;;;25.73;33.85;100879.70;107982;1254;73767;-83
2023/05/18 06:47:18;;;;;;;5.30;2.40;;;;;;;25.84;33.44;100878.58;107952;1254;75356;-84
2023/05/18 06:49:46;;;;;;;4.00;2.20;;;;;;;25.91;32.70;100879.09;108174;1253;71934;-84
2023/05/18 06:52:14;;;;;;;5.30;2.20;;;;;;;25.99;31.94;100876.23;108344;1253;62189;-86
2023/05/18 06:54:42;;;;;;;4.30;2.30;;;;;;;26.10;31.74;100878.30;108183;1253;62499;-83
2023/05/18 06:57:10;;;;;;;4.90;2.20;;;;;;;26.21;31.51;100878.09;108140;1254;76173;-84
2023/05/18 06:59:38;;;;;;;4.80;2.00;;;;;;;26.32;30.88;100874.03;108401;1258;73885;-84
2023/05/18 07:02:05;;;;;;;6.00;2.10;;;;;;;26.39;30.42;100869.65;108134;1259;74919;-83
2023/05/18 07:04:33;;;;;;;5.50;2.20;;;;;;;26.48;30.40;100875.13;108077;1257;61418;-85
2023/05/18 07:07:00;;;;;;;3.10;2.20;;;;;;;26.53;30.01;100874.38;108233;1253;61470;-85
2023/05/18 07:09:27;;;;;;;7.10;2.20;;;;;;;26.60;30.13;100873.83;108213;1253;72642;-84
2023/05/18 07:11:54;;;;;;;4.10;2.40;;;;;;;26.68;29.72;100869.39;108113;1254;75296;-85
2023/05/18 07:14:22;;;;;;;5.80;2.40;;;;;;;26.79;30.02;100871.88;108219;1254;71210;-83
2023/05/18 07:16:49;;;;;;;5.70;2.50;;;;;;;26.88;29.66;100876.02;108160;1254;60351;-84
2023/05/18 07:19:16;;;;;;;3.70;2.60;;;;;;;26.98;29.52;100873.77;108224;1253;62948;-85
2023/05/18 07:21:43;;;;;;;5.90;2.80;;;;;;;27.06;28.83;100873.39;108223;1254;74094;-84
2023/05/18 07:24:10;;;;;;;4.40;2.50;;;;;;;27.14;29.09;100871.92;108234;1254;71045;-84
2023/05/18 07:26:38;;;;;;;7.50;2.80;;;;;;;27.23;28.51;100875.39;108215;1254;72274;-84
2023/05/18 07:29:05;;;;;;;7.40;2.80;;;;;;;27.27;28.84;100879.54;108199;1254;60585;-84
2023/05/18 07:31:32;;;;;;;5.30;2.70;;;;;;;27.45;28.69;100884.34;108154;1254;61056;-83
2023/05/18 07:34:00;;;;;;;7.60;3.20;;;;;;;27.60;27.91;100886.34;107996;1254;75927;-84
2023/05/18 07:36:27;;;;;;;4.40;2.60;;;;;;;27.65;27.29;100886.90;108201;1254;72831;-83
2023/05/18 07:38:55;;;;;;;6.80;3.00;;;;;;;27.66;28.02;100890.98;108219;1254;73788;-83
2023/05/18 07:41:22;;;;;;;5.20;2.90;;;;;;;27.63;28.09;100892.35;108167;1254;60264;-83
2023/05/18 07:43:51;;;;;;;8.80;2.70;;;;;;;27.69;27.48;100889.17;108028;1253;60714;-84
2023/05/18 07:46:18;;;;;;;5.00;3.00;;;;;;;27.79;27.17;100889.36;108177;1254;73592;-84
2023/05/18 07:48:45;;;;;;;5.30;3.10;;;;;;;27.98;27.28;100888.44;108146;1254;72326;-81
2023/05/18 07:51:12;;;;;;;6.70;3.20;;;;;;;28.14;26.60;100890.41;108157;1254;71379;-83
2023/05/18 07:53:40;;;;;;;7.70;4.40;;;;;;;28.25;26.33;100888.95;108127;1254;62647;-84
2023/05/18 07:56:07;;;;;;;6.20;3.70;;;;;;;28.28;25.43;100894.09;108325;1252;61189;-83
2023/05/18 07:58:35;;;;;;;4.60;3.10;;;;;;;28.38;25.61;100894.39;108144;1253;76109;-84
2023/05/18 08:01:02;;;;;;;5.90;4.30;;;;;;;28.45;24.75;100891.21;108157;1254;71812;-85
2023/05/18 08:03:29;;;;;;;5.20;3.90;;;;;;;28.34;24.53;100890.71;108159;1253;74854;-84
2023/05/18 08:05:56;;;;;;;7.40;4.20;;;;;;;28.28;24.94;100893.46;108119;1254;59749;-84
2023/05/18 08:08:26;;;;;;;5.90;4.40;;;;;;;28.28;25.11;100894.39;108102;1254;60444;-84
2023/05/18 08:10:53;;;;;;;7.20;4.00;;;;;;;28.31;25.22;100895.54;108175;1254;66978;-83
2023/05/18 08:13:21;;;;;;;10.60;4.40;;;;;;;28.36;25.18;100895.06;108161;1254;74845;-83
2023/05/18 08:15:48;;;;;;;6.20;4.90;;;;;;;28.42;25.33;100896.75;108170;1254;71351;-82
2023/05/18 08:18:35;;;;;;;6.30;4.50;;;;;;;28.48;24.97;100894.56;108152;1254;60475;-82
2023/05/18 08:21:03;;;;;;;7.00;4.70;;;;;;;28.54;25.18;100890.34;108113;1259;62479;-83
2023/05/18 08:23:30;;;;;;;7.00;4.80;;;;;;;28.61;24.96;100894.20;108033;1259;67176;-83
2023/05/18 08:25:58;;;;;;;10.40;5.00;;;;;;;28.69;25.13;100893.20;108047;1254;72871;-84
2023/05/18 08:28:26;;;;;;;6.30;4.90;;;;;;;28.76;25.12;100885.52;108129;1258;64889;-83
2023/05/18 08:30:53;;;;;;;6.70;4.90;;;;;;;28.85;24.61;100881.86;108143;1254;60510;-85
2023/05/18 08:33:20;;;;;;;7.80;4.80;;;;;;;28.91;24.40;100881.94;108160;1254;60333;-82
2023/05/18 08:35:47;;;;;;;9.10;4.70;;;;;;;28.97;24.39;100884.08;108200;1254;66114;-85
2023/05/18 08:38:15;;;;;;;6.00;5.00;;;;;;;29.06;23.97;100881.45;108225;1254;66045;-85
2023/05/18 08:41:07;;;;;;;5.70;4.80;;;;;;;29.10;23.94;100882.74;108187;1254;74953;-84
2023/05/18 08:43:37;;;;;;;7.60;6.10;;;;;;;29.14;23.88;100881.38;108178;1253;60233;-84
2023/05/18 08:46:06;;;;;;;7.10;5.90;;;;;;;29.17;23.48;100880.16;108165;1254;60328;-84
2023/05/18 08:48:33;;;;;;;8.80;5.40;;;;;;;29.21;22.97;100878.64;108195;1254;67205;-83
2023/05/18 08:51:01;;;;;;;6.70;4.70;;;;;;;29.19;23.42;100877.89;108201;1253;65047;-83
2023/05/18 08:53:30;;;;;;;5.70;4.50;;;;;;;29.19;23.55;100872.00;108124;1254;65018;-83
2023/05/18 08:55:58;;;;;;;7.30;4.60;;;;;;;29.27;23.58;100872.24;108128;1259;60330;-83
2023/05/18 08:58:33;;;;;;;6.90;5.00;;;;;;;29.28;23.58;100866.20;108127;1259;60403;-83
2023/05/18 09:01:00;;;;;;;8.20;5.40;;;;;;;29.25;23.73;100868.52;108027;1254;74185;-83
2023/05/18 09:03:28;;;;;;;7.30;5.20;;;;;;;29.30;23.47;100865.59;107894;1254;65036;-83
2023/05/18 09:05:55;;;;;;;7.10;6.00;;;;;;;29.37;22.87;100861.27;108091;1257;72588;-85
2023/05/18 09:08:22;;;;;;;7.30;6.50;;;;;;;29.37;23.11;100859.61;108059;1254;60481;-85
2023/05/18 09:10:49;;;;;;;9.10;6.20;;;;;;;29.43;22.53;100859.45;108188;1253;60328;-84
2023/05/18 09:13:19;;;;;;;10.70;6.40;;;;;;;29.48;22.52;100861.69;107853;1254;75968;-83
2023/05/18 09:15:48;;;;;;;7.00;6.00;;;;;;;29.57;22.62;100862.65;108151;1254;66238;-82
2023/05/18 09:18:15;;;;;;;7.90;6.20;;;;;;;29.66;22.06;100862.75;108116;1254;66459;-82
2023/05/18 09:20:42;;;;;;;7.70;6.90;;;;;;;29.71;21.96;100861.14;108107;1257;60508;-83
2023/05/18 09:23:10;;;;;;;13.20;11.00;;;;;;;29.73;22.22;100862.27;108112;1254;60360;-83
2023/05/18 09:25:43;;;;;;;11.40;10.20;;;;;;;29.74;21.89;100854.41;108119;1254;75055;-82
2023/05/18 09:28:13;;;;;;;12.50;11.10;;;;;;;29.69;21.70;100853.17;108341;1254;74524;-84
2023/05/18 09:30:41;;;;;;;19.00;14.50;;;;;;;29.59;21.43;100854.98;108189;1254;66097;-85
2023/05/18 09:33:20;;;;;;;10.60;7.70;;;;;;;29.56;21.99;100852.88;108250;1254;60437;-84
2023/05/18 09:35:49;;;;;;;15.50;10.90;;;;;;;29.65;22.22;100847.95;108022;1254;60383;-85
2023/05/18 09:38:20;;;;;;;8.30;7.10;;;;;;;29.76;21.80;100849.47;108136;1254;66242;-84
2023/05/18 09:40:48;;;;;;;;;;;;;;;29.74;22.03;100849.92;108199;1254;65211;-84
2023/05/18 09:43:17;;;;;;;11.50;9.30;;;;;;;29.77;22.14;100850.19;108136;1254;66045;-84
2023/05/18 09:45:45;;;;;;;7.70;6.50;;;;;;;29.81;22.03;100846.44;108057;1254;60405;-83
2023/05/18 09:48:15;;;;;;;11.50;5.90;;;;;;;29.89;22.18;100845.80;108104;1254;60533;-85
2023/05/18 09:50:43;;;;;;;8.50;6.20;;;;;;;30.06;21.84;100840.48;108085;1254;67080;-84
2023/05/18 09:53:13;;;;;;;7.30;5.60;;;;;;;30.04;21.76;100839.61;108117;1254;65246;-83
2023/05/18 09:55:45;;;;;;;5.40;4.80;;;;;;;30.01;21.87;100840.92;108130;1257;66271;-84
2023/05/18 09:58:12;;;;;;;8.20;5.80;;;;;;;29.93;21.46;100840.08;108211;1254;60549;-84
2023/05/18 10:00:41;;;;;;;8.50;5.80;;;;;;;29.80;21.80;100838.09;108057;1254;59237;-85
2023/05/18 10:03:20;;;;;;;8.10;5.80;;;;;;;29.66;22.39;100834.98;108197;1254;66275;-85
2023/05/18 10:05:48;;;;;;;13.30;11.90;;;;;;;29.80;22.15;100833.38;108025;1254;66669;-84
2023/05/18 10:08:16;;;;;;;7.60;6.60;;;;;;;29.93;22.41;100830.00;108130;1254;66219;-83
2023/05/18 10:10:45;;;;;;;6.20;5.20;;;;;;;30.05;22.19;100827.11;108121;1257;59591;-84
2023/05/18 10:13:18;;;;;;;5.50;4.90;;;;;;;30.18;21.73;100825.39;108181;1254;60335;-82
2023/05/18 10:15:53;;;;;;;6.90;5.20;;;;;;;30.34;21.84;100823.53;108150;1254;67700;-84
2023/05/18 10:18:25;;;;;;;5.50;4.90;;;;;;;30.51;21.39;100824.33;108048;1254;64984;-84
2023/05/18 10:20:54;;;;;;;7.50;5.50;;;;;;;30.62;21.16;100820.84;108177;1257;64985;-84
2023/05/18 10:23:25;;;;;;;10.00;6.20;;;;;;;30.66;21.23;100820.05;108121;1254;60434;-83
2023/05/18 10:25:52;;;;;;;7.50;5.20;;;;;;;30.63;21.49;100817.91;108134;1254;59643;-84
2023/05/18 10:28:29;;;;;;;6.50;5.40;;;;;;;30.58;21.17;100819.00;108131;1254;67176;-83
2023/05/18 10:30:57;;;;;;;7.60;6.50;;;;;;;30.55;21.06;100819.30;108159;1254;66117;-83
2023/05/18 10:33:27;;;;;;;7.30;5.70;;;;;;;30.34;20.93;100818.33;108140;1254;65072;-83
2023/05/18 10:35:56;;;;;;;8.40;5.30;;;;;;;30.21;21.14;100817.53;107985;1254;60464;-84
2023/05/18 10:38:27;;;;;;;7.40;5.70;;;;;;;30.13;20.95;100820.54;108097;1254;60316;-83
2023/05/18 10:40:55;;;;;;;6.40;5.30;;;;;;;30.05;21.34;100821.28;108048;1254;65973;-83
2023/05/18 10:43:26;;;;;;;7.30;5.40;;;;;;;30.01;21.18;100819.69;108190;1260;66318;-83
2023/05/18 10:45:58;;;;;;;6.60;5.50;;;;;;;30.04;20.97;100815.13;108179;1254;66452;-83
2023/05/18 10:48:26;;;;;;;5.90;5.20;;;;;;;30.05;21.42;100815.38;108185;1254;60370;-84
2023/05/18 10:50:55;;;;;;;9.70;5.50;;;;;;;30.16;21.26;100811.67;108258;1254;59551;-84
2023/05/18 10:53:25;;;;;;;7.40;5.80;;;;;;;30.30;21.32;100808.63;108236;1254;66302;-84
2023/05/18 10:55:53;;;;;;;7.60;5.10;;;;;;;30.47;20.83;100806.58;108183;1254;66316;-84
2023/05/18 10:58:21;;;;;;;5.50;4.80;;;;;;;30.55;20.33;100804.56;108193;1254;66177;-85
2023/05/18 11:00:51;;;;;;;6.90;5.70;;;;;;;30.54;20.26;100804.73;108248;1254;60466;-84
2023/05/18 11:03:19;;;;;;;8.80;6.10;;;;;;;30.56;20.54;100804.98;108218;1258;60459;-84
2023/05/18 11:05:51;;;;;;;6.60;5.90;;;;;;;30.58;20.32;100800.95;108224;1255;66113;-84
2023/05/18 11:08:27;;;;;;;6.90;6.00;;;;;;;30.61;20.40;100801.67;108345;1254;66214;-84
2023/05/18 11:11:00;;;;;;;7.10;5.90;;;;;;;30.64;20.42;100799.17;108211;1254;66046;-85
2023/05/18 11:13:31;;;;;;;7.50;6.10;;;;;;;30.69;20.24;100797.38;108341;1254;60472;-83
2023/05/18 11:16:00;;;;;;;7.60;6.20;;;;;;;30.80;20.09;100797.59;108198;1253;62414;-83
2023/05/18 11:18:37;;;;;;;7.90;5.90;;;;;;;30.89;19.97;100797.39;108237;1254;67511;-83
2023/05/18 11:21:27;;;;;;;6.60;6.00;;;;;;;30.97;19.74;100791.02;108213;1260;66429;-84
2023/05/18 11:24:16;;;;;;;6.60;5.50;;;;;;;30.98;19.95;100789.77;108242;1259;66070;-82
2023/05/18 11:26:54;;;;;;;7.80;5.60;;;;;;;31.09;20.38;100790.49;108258;1254;60536;-85